sensor_id;sensor_type;location;lat;lon;timestamp;temperature;humidity
31991;DHT22;18508;49.386;8.370;2022-10-16T00:02:11;16.10;99.90
31991;DHT22;18508;49.386;8.370;2022-10-16T00:07:17;16.00;99.90
31991;DHT22;18508;49.386;8.370;2022-10-16T00:12:26;16.30;99.90
31991;DHT22;18508;49.386;8.370;2022-10-16T00:17:31;16.10;99.90
31991;DHT22;18508;49.386;8.370;2022-10-16T00:22:37;16.10;99.90
31991;DHT22;18508;49.386;8.370;2022-10-16T00:25:18;16.40;99.90
31991;DHT22;18508;49.386;8.370;2022-10-16T00:40:37;15.70;99.90
31991;DHT22;18508;49.386;8.370;2022-10-16T00:43:13;16.70;99.90
31991;DHT22;18508;49.386;8.370;2022-10-16T00:53:21;16.10;99.90
31991;DHT22;18508;49.386;8.370;2022-10-16T00:55:52;16.10;99.90
31991;DHT22;18508;49.386;8.370;2022-10-16T00:58:25;16.00;99.90
31991;DHT22;18508;49.386;8.370;2022-10-16T01:03:26;16.00;99.90
31991;DHT22;18508;49.386;8.370;2022-10-16T01:06:17;16.00;99.90
31991;DHT22;18508;49.386;8.370;2022-10-16T01:09:06;16.00;99.90
31991;DHT22;18508;49.386;8.370;2022-10-16T01:11:46;16.00;99.90
31991;DHT22;18508;49.386;8.370;2022-10-16T01:14:26;16.00;99.90
31991;DHT22;18508;49.386;8.370;2022-10-16T01:17:12;16.00;99.90
31991;DHT22;18508;49.386;8.370;2022-10-16T01:20:02;16.00;99.90
31991;DHT22;18508;49.386;8.370;2022-10-16T01:28:45;16.00;99.90
31991;DHT22;18508;49.386;8.370;2022-10-16T01:31:24;16.00;99.90
31991;DHT22;18508;49.386;8.370;2022-10-16T01:33:59;16.00;99.90
31991;DHT22;18508;49.386;8.370;2022-10-16T01:36:41;16.00;99.90
31991;DHT22;18508;49.386;8.370;2022-10-16T01:39:27;15.90;99.90
31991;DHT22;18508;49.386;8.370;2022-10-16T01:42:14;15.90;99.90
31991;DHT22;18508;49.386;8.370;2022-10-16T01:44:59;15.90;99.90
31991;DHT22;18508;49.386;8.370;2022-10-16T01:47:38;16.00;99.90
31991;DHT22;18508;49.386;8.370;2022-10-16T01:50:27;15.90;99.90
31991;DHT22;18508;49.386;8.370;2022-10-16T01:52:59;15.90;99.90
31991;DHT22;18508;49.386;8.370;2022-10-16T01:56:03;15.90;99.90
31991;DHT22;18508;49.386;8.370;2022-10-16T01:58:42;15.90;99.90
31991;DHT22;18508;49.386;8.370;2022-10-16T02:01:42;15.90;99.90
31991;DHT22;18508;49.386;8.370;2022-10-16T02:04:20;15.90;99.90
31991;DHT22;18508;49.386;8.370;2022-10-16T02:09:32;15.90;99.90
31991;DHT22;18508;49.386;8.370;2022-10-16T02:12:25;15.90;99.90
31991;DHT22;18508;49.386;8.370;2022-10-16T02:15:09;15.90;99.90
31991;DHT22;18508;49.386;8.370;2022-10-16T02:20:15;15.90;99.90
31991;DHT22;18508;49.386;8.370;2022-10-16T02:22:47;15.90;99.90
31991;DHT22;18508;49.386;8.370;2022-10-16T02:25:32;15.90;99.90
31991;DHT22;18508;49.386;8.370;2022-10-16T02:28:08;15.90;99.90
31991;DHT22;18508;49.386;8.370;2022-10-16T02:30:53;16.20;99.90
31991;DHT22;18508;49.386;8.370;2022-10-16T02:33:30;15.40;99.90
31991;DHT22;18508;49.386;8.370;2022-10-16T02:36:03;15.80;99.90
31991;DHT22;18508;49.386;8.370;2022-10-16T02:46:26;15.80;99.90
31991;DHT22;18508;49.386;8.370;2022-10-16T02:49:01;15.80;99.90
31991;DHT22;18508;49.386;8.370;2022-10-16T02:56:42;15.90;99.90
31991;DHT22;18508;49.386;8.370;2022-10-16T02:59:16;16.10;99.90
31991;DHT22;18508;49.386;8.370;2022-10-16T03:06:50;16.30;99.90
31991;DHT22;18508;49.386;8.370;2022-10-16T03:09:22;15.80;99.90
31991;DHT22;18508;49.386;8.370;2022-10-16T03:11:57;15.50;99.90
31991;DHT22;18508;49.386;8.370;2022-10-16T03:19:48;15.70;99.90
31991;DHT22;18508;49.386;8.370;2022-10-16T03:22:28;15.50;99.90
31991;DHT22;18508;49.386;8.370;2022-10-16T03:25:04;15.80;99.90
31991;DHT22;18508;49.386;8.370;2022-10-16T03:27:39;15.80;99.90
31991;DHT22;18508;49.386;8.370;2022-10-16T03:30:18;16.00;99.90
31991;DHT22;18508;49.386;8.370;2022-10-16T03:35:30;15.70;99.90
31991;DHT22;18508;49.386;8.370;2022-10-16T03:38:07;15.70;99.90
31991;DHT22;18508;49.386;8.370;2022-10-16T03:43:10;15.50;99.90
31991;DHT22;18508;49.386;8.370;2022-10-16T03:45:53;15.70;99.90
31991;DHT22;18508;49.386;8.370;2022-10-16T03:50:58;15.70;99.90
31991;DHT22;18508;49.386;8.370;2022-10-16T04:03:52;15.70;99.90
31991;DHT22;18508;49.386;8.370;2022-10-16T04:06:29;15.70;99.90
31991;DHT22;18508;49.386;8.370;2022-10-16T04:09:05;15.70;99.90
31991;DHT22;18508;49.386;8.370;2022-10-16T04:11:39;15.70;99.90
31991;DHT22;18508;49.386;8.370;2022-10-16T04:37:24;15.60;99.90
31991;DHT22;18508;49.386;8.370;2022-10-16T04:42:35;15.60;99.90
31991;DHT22;18508;49.386;8.370;2022-10-16T04:50:21;15.50;99.90
31991;DHT22;18508;49.386;8.370;2022-10-16T04:55:53;15.50;99.90
31991;DHT22;18508;49.386;8.370;2022-10-16T04:58:39;15.40;99.90
31991;DHT22;18508;49.386;8.370;2022-10-16T05:01:20;15.50;99.90
31991;DHT22;18508;49.386;8.370;2022-10-16T05:04:08;15.50;99.90
31991;DHT22;18508;49.386;8.370;2022-10-16T05:06:56;15.40;99.90
31991;DHT22;18508;49.386;8.370;2022-10-16T05:12:20;15.40;99.90
31991;DHT22;18508;49.386;8.370;2022-10-16T05:20:10;15.10;99.90
31991;DHT22;18508;49.386;8.370;2022-10-16T05:22:46;15.10;99.90
31991;DHT22;18508;49.386;8.370;2022-10-16T05:25:17;15.40;99.90
31991;DHT22;18508;49.386;8.370;2022-10-16T05:27:56;15.50;99.90
31991;DHT22;18508;49.386;8.370;2022-10-16T05:30:30;15.50;99.90
31991;DHT22;18508;49.386;8.370;2022-10-16T05:33:13;15.50;99.90
31991;DHT22;18508;49.386;8.370;2022-10-16T05:38:18;15.10;99.90
31991;DHT22;18508;49.386;8.370;2022-10-16T05:43:45;15.60;99.90
31991;DHT22;18508;49.386;8.370;2022-10-16T05:48:56;15.50;99.90
31991;DHT22;18508;49.386;8.370;2022-10-16T05:51:43;15.50;99.90
31991;DHT22;18508;49.386;8.370;2022-10-16T05:54:19;15.50;99.90
31991;DHT22;18508;49.386;8.370;2022-10-16T05:56:58;15.50;99.90
31991;DHT22;18508;49.386;8.370;2022-10-16T06:02:15;15.50;99.90
31991;DHT22;18508;49.386;8.370;2022-10-16T06:09:58;15.60;99.90
31991;DHT22;18508;49.386;8.370;2022-10-16T06:17:55;15.60;99.90
31991;DHT22;18508;49.386;8.370;2022-10-16T06:31:00;15.70;99.90
31991;DHT22;18508;49.386;8.370;2022-10-16T06:33:34;16.30;99.90
31991;DHT22;18508;49.386;8.370;2022-10-16T06:36:04;15.80;99.90
31991;DHT22;18508;49.386;8.370;2022-10-16T06:41:14;16.40;99.90
31991;DHT22;18508;49.386;8.370;2022-10-16T06:43:48;16.00;99.90
31991;DHT22;18508;49.386;8.370;2022-10-16T06:46:21;15.80;99.90
31991;DHT22;18508;49.386;8.370;2022-10-16T06:48:51;16.00;99.90
31991;DHT22;18508;49.386;8.370;2022-10-16T06:51:20;15.80;99.90
31991;DHT22;18508;49.386;8.370;2022-10-16T06:53:52;15.80;99.90
31991;DHT22;18508;49.386;8.370;2022-10-16T06:56:30;15.70;99.90
31991;DHT22;18508;49.386;8.370;2022-10-16T07:01:35;15.70;99.90
31991;DHT22;18508;49.386;8.370;2022-10-16T07:04:04;16.00;99.90
31991;DHT22;18508;49.386;8.370;2022-10-16T07:06:34;16.00;99.90
31991;DHT22;18508;49.386;8.370;2022-10-16T07:09:06;16.10;99.90
31991;DHT22;18508;49.386;8.370;2022-10-16T07:11:36;16.10;99.90
31991;DHT22;18508;49.386;8.370;2022-10-16T07:14:14;16.10;99.90
31991;DHT22;18508;49.386;8.370;2022-10-16T07:16:46;16.20;99.90
31991;DHT22;18508;49.386;8.370;2022-10-16T07:19:17;16.10;99.90
31991;DHT22;18508;49.386;8.370;2022-10-16T07:21:45;16.30;99.90
31991;DHT22;18508;49.386;8.370;2022-10-16T07:24:17;16.60;99.90
31991;DHT22;18508;49.386;8.370;2022-10-16T07:26:47;16.40;99.90
31991;DHT22;18508;49.386;8.370;2022-10-16T07:29:21;16.50;99.90
31991;DHT22;18508;49.386;8.370;2022-10-16T07:31:52;16.50;99.90
31991;DHT22;18508;49.386;8.370;2022-10-16T07:34:21;16.50;99.90
31991;DHT22;18508;49.386;8.370;2022-10-16T07:36:50;16.60;99.90
31991;DHT22;18508;49.386;8.370;2022-10-16T07:39:19;16.40;99.90
31991;DHT22;18508;49.386;8.370;2022-10-16T07:41:50;16.60;99.90
31991;DHT22;18508;49.386;8.370;2022-10-16T07:44:19;16.70;99.90
31991;DHT22;18508;49.386;8.370;2022-10-16T07:46:47;16.70;99.90
31991;DHT22;18508;49.386;8.370;2022-10-16T07:49:18;16.80;99.90
31991;DHT22;18508;49.386;8.370;2022-10-16T07:51:48;16.80;99.90
31991;DHT22;18508;49.386;8.370;2022-10-16T07:54:16;16.90;99.90
31991;DHT22;18508;49.386;8.370;2022-10-16T07:56:52;16.90;99.90
31991;DHT22;18508;49.386;8.370;2022-10-16T07:59:21;17.00;99.90
31991;DHT22;18508;49.386;8.370;2022-10-16T08:01:50;17.30;99.90
31991;DHT22;18508;49.386;8.370;2022-10-16T08:04:20;16.90;99.90
31991;DHT22;18508;49.386;8.370;2022-10-16T08:06:48;16.90;99.90
31991;DHT22;18508;49.386;8.370;2022-10-16T08:09:21;16.90;99.90
31991;DHT22;18508;49.386;8.370;2022-10-16T08:11:55;16.90;99.90
31991;DHT22;18508;49.386;8.370;2022-10-16T08:14:28;16.90;99.90
31991;DHT22;18508;49.386;8.370;2022-10-16T08:16:56;16.90;99.90
31991;DHT22;18508;49.386;8.370;2022-10-16T08:19:30;16.90;99.90
31991;DHT22;18508;49.386;8.370;2022-10-16T08:22:02;17.10;99.90
31991;DHT22;18508;49.386;8.370;2022-10-16T08:24:31;16.60;99.90
31991;DHT22;18508;49.386;8.370;2022-10-16T08:27:01;17.00;99.90
31991;DHT22;18508;49.386;8.370;2022-10-16T08:29:31;17.00;99.90
31991;DHT22;18508;49.386;8.370;2022-10-16T08:32:03;17.20;99.90
31991;DHT22;18508;49.386;8.370;2022-10-16T08:34:36;17.30;99.90
31991;DHT22;18508;49.386;8.370;2022-10-16T08:37:05;17.80;99.90
31991;DHT22;18508;49.386;8.370;2022-10-16T08:39:36;17.60;99.90
31991;DHT22;18508;49.386;8.370;2022-10-16T08:42:16;17.70;99.90
31991;DHT22;18508;49.386;8.370;2022-10-16T08:47:43;18.00;99.90
31991;DHT22;18508;49.386;8.370;2022-10-16T08:50:21;18.10;99.90
31991;DHT22;18508;49.386;8.370;2022-10-16T08:52:51;18.20;99.90
31991;DHT22;18508;49.386;8.370;2022-10-16T08:55:31;18.10;99.90
31991;DHT22;18508;49.386;8.370;2022-10-16T08:58:07;17.90;99.90
31991;DHT22;18508;49.386;8.370;2022-10-16T09:00:39;17.70;99.90
31991;DHT22;18508;49.386;8.370;2022-10-16T09:03:18;17.80;99.90
31991;DHT22;18508;49.386;8.370;2022-10-16T09:06:10;18.00;99.90
31991;DHT22;18508;49.386;8.370;2022-10-16T09:08:56;18.70;99.90
31991;DHT22;18508;49.386;8.370;2022-10-16T09:11:34;19.30;99.90
31991;DHT22;18508;49.386;8.370;2022-10-16T09:14:23;18.60;99.90
31991;DHT22;18508;49.386;8.370;2022-10-16T09:17:13;18.80;99.90
31991;DHT22;18508;49.386;8.370;2022-10-16T09:19:49;19.00;99.90
31991;DHT22;18508;49.386;8.370;2022-10-16T09:22:25;19.20;99.90
31991;DHT22;18508;49.386;8.370;2022-10-16T09:25:00;19.40;99.90
31991;DHT22;18508;49.386;8.370;2022-10-16T09:27:30;19.50;99.90
31991;DHT22;18508;49.386;8.370;2022-10-16T09:30:09;19.50;99.90
31991;DHT22;18508;49.386;8.370;2022-10-16T09:32:39;20.20;99.90
31991;DHT22;18508;49.386;8.370;2022-10-16T09:35:18;19.90;99.90
31991;DHT22;18508;49.386;8.370;2022-10-16T09:37:54;19.80;99.90
31991;DHT22;18508;49.386;8.370;2022-10-16T09:40:28;19.90;99.90
31991;DHT22;18508;49.386;8.370;2022-10-16T09:43:03;19.90;99.90
31991;DHT22;18508;49.386;8.370;2022-10-16T09:45:35;19.90;99.90
31991;DHT22;18508;49.386;8.370;2022-10-16T09:48:12;20.10;99.90
31991;DHT22;18508;49.386;8.370;2022-10-16T09:50:43;20.20;99.90
31991;DHT22;18508;49.386;8.370;2022-10-16T09:53:14;20.00;99.90
31991;DHT22;18508;49.386;8.370;2022-10-16T09:55:48;20.20;99.90
31991;DHT22;18508;49.386;8.370;2022-10-16T09:58:20;20.30;99.90
31991;DHT22;18508;49.386;8.370;2022-10-16T10:00:54;20.30;99.90
31991;DHT22;18508;49.386;8.370;2022-10-16T10:03:35;20.40;99.90
31991;DHT22;18508;49.386;8.370;2022-10-16T10:06:14;20.30;99.90
31991;DHT22;18508;49.386;8.370;2022-10-16T10:09:02;20.30;99.90
31991;DHT22;18508;49.386;8.370;2022-10-16T10:11:55;20.30;99.90
31991;DHT22;18508;49.386;8.370;2022-10-16T10:14:34;20.30;99.90
31991;DHT22;18508;49.386;8.370;2022-10-16T10:17:14;20.30;99.90
31991;DHT22;18508;49.386;8.370;2022-10-16T10:19:47;20.20;99.90
31991;DHT22;18508;49.386;8.370;2022-10-16T10:22:22;20.20;99.90
31991;DHT22;18508;49.386;8.370;2022-10-16T10:27:48;20.50;99.90
31991;DHT22;18508;49.386;8.370;2022-10-16T10:30:22;20.90;99.90
31991;DHT22;18508;49.386;8.370;2022-10-16T10:33:09;21.40;99.90
31991;DHT22;18508;49.386;8.370;2022-10-16T10:35:45;21.50;99.90
31991;DHT22;18508;49.386;8.370;2022-10-16T10:38:27;21.70;99.90
31991;DHT22;18508;49.386;8.370;2022-10-16T10:41:17;21.70;99.90
31991;DHT22;18508;49.386;8.370;2022-10-16T10:44:03;21.90;99.90
31991;DHT22;18508;49.386;8.370;2022-10-16T10:46:41;21.90;99.90
31991;DHT22;18508;49.386;8.370;2022-10-16T10:49:34;21.80;99.90
31991;DHT22;18508;49.386;8.370;2022-10-16T10:52:20;21.70;99.90
31991;DHT22;18508;49.386;8.370;2022-10-16T10:54:59;21.70;99.90
31991;DHT22;18508;49.386;8.370;2022-10-16T10:57:38;21.70;99.90
31991;DHT22;18508;49.386;8.370;2022-10-16T11:00:20;21.60;99.90
31991;DHT22;18508;49.386;8.370;2022-10-16T11:02:54;22.30;99.90
31991;DHT22;18508;49.386;8.370;2022-10-16T11:05:38;22.10;99.90
31991;DHT22;18508;49.386;8.370;2022-10-16T11:08:13;22.00;99.90
31991;DHT22;18508;49.386;8.370;2022-10-16T11:10:50;21.80;99.90
31991;DHT22;18508;49.386;8.370;2022-10-16T11:13:43;21.50;99.90
31991;DHT22;18508;49.386;8.370;2022-10-16T11:16:18;21.40;99.90
31991;DHT22;18508;49.386;8.370;2022-10-16T11:18:56;21.20;99.90
31991;DHT22;18508;49.386;8.370;2022-10-16T11:21:29;21.60;99.90
31991;DHT22;18508;49.386;8.370;2022-10-16T11:24:03;21.90;99.90
31991;DHT22;18508;49.386;8.370;2022-10-16T11:26:35;22.10;99.90
31991;DHT22;18508;49.386;8.370;2022-10-16T11:29:16;22.30;99.90
31991;DHT22;18508;49.386;8.370;2022-10-16T11:31:50;22.60;99.90
31991;DHT22;18508;49.386;8.370;2022-10-16T11:34:24;22.70;99.90
31991;DHT22;18508;49.386;8.370;2022-10-16T11:37:05;22.60;99.90
31991;DHT22;18508;49.386;8.370;2022-10-16T11:39:38;22.60;99.90
31991;DHT22;18508;49.386;8.370;2022-10-16T11:42:13;22.70;99.90
31991;DHT22;18508;49.386;8.370;2022-10-16T11:44:54;22.60;99.90
31991;DHT22;18508;49.386;8.370;2022-10-16T11:47:31;22.60;99.90
31991;DHT22;18508;49.386;8.370;2022-10-16T11:50:26;22.70;99.90
31991;DHT22;18508;49.386;8.370;2022-10-16T11:53:16;22.90;99.90
31991;DHT22;18508;49.386;8.370;2022-10-16T11:55:55;22.90;99.90
31991;DHT22;18508;49.386;8.370;2022-10-16T11:58:29;22.80;99.90
31991;DHT22;18508;49.386;8.370;2022-10-16T12:01:15;22.90;99.90
31991;DHT22;18508;49.386;8.370;2022-10-16T12:03:54;23.00;99.90
31991;DHT22;18508;49.386;8.370;2022-10-16T12:06:30;22.90;99.90
31991;DHT22;18508;49.386;8.370;2022-10-16T12:09:00;23.00;99.90
31991;DHT22;18508;49.386;8.370;2022-10-16T12:11:34;23.00;99.90
31991;DHT22;18508;49.386;8.370;2022-10-16T12:14:07;23.00;99.90
31991;DHT22;18508;49.386;8.370;2022-10-16T12:16:55;23.00;99.90
31991;DHT22;18508;49.386;8.370;2022-10-16T12:19:24;23.10;99.90
31991;DHT22;18508;49.386;8.370;2022-10-16T12:21:56;23.20;99.90
31991;DHT22;18508;49.386;8.370;2022-10-16T12:24:33;23.10;99.90
31991;DHT22;18508;49.386;8.370;2022-10-16T12:27:04;23.20;99.90
31991;DHT22;18508;49.386;8.370;2022-10-16T12:29:36;23.00;99.90
31991;DHT22;18508;49.386;8.370;2022-10-16T12:32:26;23.00;99.90
31991;DHT22;18508;49.386;8.370;2022-10-16T12:35:19;22.70;99.90
31991;DHT22;18508;49.386;8.370;2022-10-16T12:37:50;22.70;99.90
31991;DHT22;18508;49.386;8.370;2022-10-16T12:40:27;22.80;99.90
31991;DHT22;18508;49.386;8.370;2022-10-16T12:43:10;22.70;99.90
31991;DHT22;18508;49.386;8.370;2022-10-16T12:45:39;22.90;99.90
31991;DHT22;18508;49.386;8.370;2022-10-16T12:48:21;23.10;99.90
31991;DHT22;18508;49.386;8.370;2022-10-16T12:51:19;23.10;99.90
31991;DHT22;18508;49.386;8.370;2022-10-16T12:53:58;23.10;12.20
31991;DHT22;18508;49.386;8.370;2022-10-16T12:56:37;23.00;1.00
31991;DHT22;18508;49.386;8.370;2022-10-16T12:59:19;22.70;1.00
31991;DHT22;18508;49.386;8.370;2022-10-16T13:02:01;22.80;13.00
31991;DHT22;18508;49.386;8.370;2022-10-16T13:05:14;22.60;15.10
31991;DHT22;18508;49.386;8.370;2022-10-16T13:07:56;22.40;23.70
31991;DHT22;18508;49.386;8.370;2022-10-16T13:10:33;22.30;44.80
31991;DHT22;18508;49.386;8.370;2022-10-16T13:13:20;22.30;72.50
31991;DHT22;18508;49.386;8.370;2022-10-16T13:16:00;22.10;55.90
31991;DHT22;18508;49.386;8.370;2022-10-16T13:18:42;21.90;99.90
31991;DHT22;18508;49.386;8.370;2022-10-16T13:21:20;21.80;99.90
31991;DHT22;18508;49.386;8.370;2022-10-16T13:23:58;21.70;99.90
31991;DHT22;18508;49.386;8.370;2022-10-16T13:26:36;21.70;99.90
31991;DHT22;18508;49.386;8.370;2022-10-16T13:29:09;21.60;99.90
31991;DHT22;18508;49.386;8.370;2022-10-16T13:31:38;21.50;99.90
31991;DHT22;18508;49.386;8.370;2022-10-16T13:34:12;21.40;99.90
31991;DHT22;18508;49.386;8.370;2022-10-16T13:36:46;21.30;99.90
31991;DHT22;18508;49.386;8.370;2022-10-16T13:39:22;21.40;99.90
31991;DHT22;18508;49.386;8.370;2022-10-16T13:42:02;21.40;99.90
31991;DHT22;18508;49.386;8.370;2022-10-16T13:44:38;21.40;99.90
31991;DHT22;18508;49.386;8.370;2022-10-16T13:47:12;21.50;99.90
31991;DHT22;18508;49.386;8.370;2022-10-16T13:49:42;21.60;99.90
31991;DHT22;18508;49.386;8.370;2022-10-16T13:52:20;21.30;99.90
31991;DHT22;18508;49.386;8.370;2022-10-16T13:54:49;21.60;99.90
31991;DHT22;18508;49.386;8.370;2022-10-16T13:57:22;21.50;99.90
31991;DHT22;18508;49.386;8.370;2022-10-16T13:59:54;21.40;99.90
31991;DHT22;18508;49.386;8.370;2022-10-16T14:02:26;21.40;99.90
31991;DHT22;18508;49.386;8.370;2022-10-16T14:04:56;21.30;99.90
31991;DHT22;18508;49.386;8.370;2022-10-16T14:07:31;21.20;99.90
31991;DHT22;18508;49.386;8.370;2022-10-16T14:10:05;21.20;99.90
31991;DHT22;18508;49.386;8.370;2022-10-16T14:12:36;21.20;99.90
31991;DHT22;18508;49.386;8.370;2022-10-16T14:15:17;21.20;99.90
31991;DHT22;18508;49.386;8.370;2022-10-16T14:17:50;21.10;99.90
31991;DHT22;18508;49.386;8.370;2022-10-16T14:20:25;21.00;99.90
31991;DHT22;18508;49.386;8.370;2022-10-16T14:23:16;21.00;99.90
31991;DHT22;18508;49.386;8.370;2022-10-16T14:25:48;20.80;99.90
31991;DHT22;18508;49.386;8.370;2022-10-16T14:28:23;20.30;99.90
31991;DHT22;18508;49.386;8.370;2022-10-16T14:30:54;20.70;99.90
31991;DHT22;18508;49.386;8.370;2022-10-16T14:33:32;20.50;99.90
31991;DHT22;18508;49.386;8.370;2022-10-16T14:36:03;20.70;99.90
31991;DHT22;18508;49.386;8.370;2022-10-16T14:38:34;20.80;99.90
31991;DHT22;18508;49.386;8.370;2022-10-16T14:41:04;20.80;99.90
31991;DHT22;18508;49.386;8.370;2022-10-16T14:43:36;20.80;99.90
31991;DHT22;18508;49.386;8.370;2022-10-16T14:46:11;20.80;99.90
31991;DHT22;18508;49.386;8.370;2022-10-16T14:48:41;21.00;99.90
31991;DHT22;18508;49.386;8.370;2022-10-16T14:51:14;21.00;99.90
31991;DHT22;18508;49.386;8.370;2022-10-16T14:53:45;21.00;99.90
31991;DHT22;18508;49.386;8.370;2022-10-16T14:56:17;21.10;99.90
31991;DHT22;18508;49.386;8.370;2022-10-16T14:58:46;21.20;99.90
31991;DHT22;18508;49.386;8.370;2022-10-16T15:01:14;21.20;99.90
31991;DHT22;18508;49.386;8.370;2022-10-16T15:03:43;21.30;99.90
31991;DHT22;18508;49.386;8.370;2022-10-16T15:06:13;21.60;99.90
31991;DHT22;18508;49.386;8.370;2022-10-16T15:08:53;21.30;99.90
31991;DHT22;18508;49.386;8.370;2022-10-16T15:11:21;21.50;99.90
31991;DHT22;18508;49.386;8.370;2022-10-16T15:13:50;21.40;99.90
31991;DHT22;18508;49.386;8.370;2022-10-16T15:16:19;21.40;99.90
31991;DHT22;18508;49.386;8.370;2022-10-16T15:18:47;21.40;99.90
31991;DHT22;18508;49.386;8.370;2022-10-16T15:21:27;21.30;99.90
31991;DHT22;18508;49.386;8.370;2022-10-16T15:23:59;21.30;99.90
31991;DHT22;18508;49.386;8.370;2022-10-16T15:26:29;21.30;99.90
31991;DHT22;18508;49.386;8.370;2022-10-16T15:28:58;21.30;99.90
31991;DHT22;18508;49.386;8.370;2022-10-16T15:31:27;21.20;99.90
31991;DHT22;18508;49.386;8.370;2022-10-16T15:33:55;21.30;99.90
31991;DHT22;18508;49.386;8.370;2022-10-16T15:36:30;21.20;99.90
31991;DHT22;18508;49.386;8.370;2022-10-16T15:39:02;21.20;99.90
31991;DHT22;18508;49.386;8.370;2022-10-16T15:41:32;21.20;99.90
31991;DHT22;18508;49.386;8.370;2022-10-16T15:44:03;21.20;99.90
31991;DHT22;18508;49.386;8.370;2022-10-16T15:46:33;21.20;99.90
31991;DHT22;18508;49.386;8.370;2022-10-16T15:49:04;21.20;99.90
31991;DHT22;18508;49.386;8.370;2022-10-16T15:51:37;21.10;99.90
31991;DHT22;18508;49.386;8.370;2022-10-16T15:54:07;21.10;99.90
31991;DHT22;18508;49.386;8.370;2022-10-16T15:56:36;21.10;99.90
31991;DHT22;18508;49.386;8.370;2022-10-16T15:59:05;21.00;99.90
31991;DHT22;18508;49.386;8.370;2022-10-16T16:01:34;20.90;99.90
31991;DHT22;18508;49.386;8.370;2022-10-16T16:04:03;20.80;99.90
31991;DHT22;18508;49.386;8.370;2022-10-16T16:06:52;20.70;99.90
31991;DHT22;18508;49.386;8.370;2022-10-16T16:09:22;20.50;99.90
31991;DHT22;18508;49.386;8.370;2022-10-16T16:11:51;20.40;99.90
31991;DHT22;18508;49.386;8.370;2022-10-16T16:14:19;19.80;99.90
31991;DHT22;18508;49.386;8.370;2022-10-16T16:16:49;20.10;99.90
31991;DHT22;18508;49.386;8.370;2022-10-16T16:19:17;20.00;99.90
31991;DHT22;18508;49.386;8.370;2022-10-16T16:21:48;20.20;99.90
31991;DHT22;18508;49.386;8.370;2022-10-16T16:24:17;19.70;99.90
31991;DHT22;18508;49.386;8.370;2022-10-16T16:26:49;19.60;99.90
31991;DHT22;18508;49.386;8.370;2022-10-16T16:29:19;19.50;99.90
31991;DHT22;18508;49.386;8.370;2022-10-16T16:31:48;19.40;99.90
31991;DHT22;18508;49.386;8.370;2022-10-16T16:34:16;19.30;99.90
31991;DHT22;18508;49.386;8.370;2022-10-16T16:36:45;19.10;99.90
31991;DHT22;18508;49.386;8.370;2022-10-16T16:39:13;19.10;99.90
31991;DHT22;18508;49.386;8.370;2022-10-16T16:41:42;19.00;99.90
31991;DHT22;18508;49.386;8.370;2022-10-16T16:44:19;18.90;99.90
31991;DHT22;18508;49.386;8.370;2022-10-16T16:46:48;18.80;99.90
31991;DHT22;18508;49.386;8.370;2022-10-16T16:49:19;18.70;99.90
31991;DHT22;18508;49.386;8.370;2022-10-16T16:51:47;18.60;99.90
31991;DHT22;18508;49.386;8.370;2022-10-16T16:54:16;18.50;99.90
31991;DHT22;18508;49.386;8.370;2022-10-16T16:56:45;18.40;99.90
31991;DHT22;18508;49.386;8.370;2022-10-16T16:59:14;18.30;99.90
31991;DHT22;18508;49.386;8.370;2022-10-16T17:01:53;18.20;99.90
31991;DHT22;18508;49.386;8.370;2022-10-16T17:04:23;18.10;99.90
31991;DHT22;18508;49.386;8.370;2022-10-16T17:06:53;18.00;99.90
31991;DHT22;18508;49.386;8.370;2022-10-16T17:09:24;17.90;99.90
31991;DHT22;18508;49.386;8.370;2022-10-16T17:11:54;17.80;99.90
31991;DHT22;18508;49.386;8.370;2022-10-16T17:14:23;17.80;99.90
31991;DHT22;18508;49.386;8.370;2022-10-16T17:17:01;17.70;99.90
31991;DHT22;18508;49.386;8.370;2022-10-16T17:19:33;17.60;99.90
31991;DHT22;18508;49.386;8.370;2022-10-16T17:22:02;17.50;99.90
31991;DHT22;18508;49.386;8.370;2022-10-16T17:24:31;17.40;99.90
31991;DHT22;18508;49.386;8.370;2022-10-16T17:27:00;17.60;99.90
31991;DHT22;18508;49.386;8.370;2022-10-16T17:29:31;17.40;99.90
31991;DHT22;18508;49.386;8.370;2022-10-16T17:32:05;17.50;99.90
31991;DHT22;18508;49.386;8.370;2022-10-16T17:34:34;17.20;99.90
31991;DHT22;18508;49.386;8.370;2022-10-16T17:37:02;17.10;99.90
31991;DHT22;18508;49.386;8.370;2022-10-16T17:39:31;16.60;99.90
31991;DHT22;18508;49.386;8.370;2022-10-16T17:42:00;17.00;99.90
31991;DHT22;18508;49.386;8.370;2022-10-16T17:44:30;16.90;99.90
31991;DHT22;18508;49.386;8.370;2022-10-16T17:46:59;16.90;99.90
31991;DHT22;18508;49.386;8.370;2022-10-16T17:49:29;16.80;99.90
31991;DHT22;18508;49.386;8.370;2022-10-16T17:51:58;16.70;99.90
31991;DHT22;18508;49.386;8.370;2022-10-16T17:54:28;17.00;99.90
31991;DHT22;18508;49.386;8.370;2022-10-16T17:56:57;17.20;99.90
31991;DHT22;18508;49.386;8.370;2022-10-16T17:59:25;16.60;99.90
31991;DHT22;18508;49.386;8.370;2022-10-16T18:01:55;16.50;99.90
31991;DHT22;18508;49.386;8.370;2022-10-16T18:04:23;16.30;99.90
31991;DHT22;18508;49.386;8.370;2022-10-16T18:06:54;16.40;99.90
31991;DHT22;18508;49.386;8.370;2022-10-16T18:09:23;16.40;99.90
31991;DHT22;18508;49.386;8.370;2022-10-16T18:11:51;16.40;99.90
31991;DHT22;18508;49.386;8.370;2022-10-16T18:14:29;16.20;99.90
31991;DHT22;18508;49.386;8.370;2022-10-16T18:16:58;16.20;99.90
31991;DHT22;18508;49.386;8.370;2022-10-16T18:19:36;16.00;99.90
31991;DHT22;18508;49.386;8.370;2022-10-16T18:22:05;16.10;99.90
31991;DHT22;18508;49.386;8.370;2022-10-16T18:24:33;16.10;99.90
31991;DHT22;18508;49.386;8.370;2022-10-16T18:27:05;16.00;99.90
31991;DHT22;18508;49.386;8.370;2022-10-16T18:29:33;16.00;99.90
31991;DHT22;18508;49.386;8.370;2022-10-16T18:32:02;16.00;99.90
31991;DHT22;18508;49.386;8.370;2022-10-16T18:34:30;16.00;99.90
31991;DHT22;18508;49.386;8.370;2022-10-16T18:37:03;15.90;99.90
31991;DHT22;18508;49.386;8.370;2022-10-16T18:39:34;15.90;99.90
31991;DHT22;18508;49.386;8.370;2022-10-16T18:42:02;15.90;99.90
31991;DHT22;18508;49.386;8.370;2022-10-16T18:44:31;16.00;99.90
31991;DHT22;18508;49.386;8.370;2022-10-16T18:47:00;15.80;99.90
31991;DHT22;18508;49.386;8.370;2022-10-16T18:49:29;15.80;99.90
31991;DHT22;18508;49.386;8.370;2022-10-16T18:52:01;15.80;99.90
31991;DHT22;18508;49.386;8.370;2022-10-16T18:54:34;15.70;99.90
31991;DHT22;18508;49.386;8.370;2022-10-16T18:57:04;15.70;99.90
31991;DHT22;18508;49.386;8.370;2022-10-16T18:59:33;15.70;99.90
31991;DHT22;18508;49.386;8.370;2022-10-16T19:02:01;15.60;99.90
31991;DHT22;18508;49.386;8.370;2022-10-16T19:04:30;15.60;99.90
31991;DHT22;18508;49.386;8.370;2022-10-16T19:06:59;15.50;99.90
31991;DHT22;18508;49.386;8.370;2022-10-16T19:09:27;15.50;99.90